sensor_id;sensor_type;location;lat;lon;timestamp;pressure;altitude;pressure_sealevel;temperature;humidity
71126;BME280;58785;55.566;38.058;2022-10-31T00:00:07;98587.03;;;2.20;67.57
71126;BME280;58785;55.566;38.058;2022-10-31T00:02:33;98594.53;;;2.25;68.15
71126;BME280;58785;55.566;38.058;2022-10-31T00:04:58;98579.88;;;2.22;68.09
71126;BME280;58785;55.566;38.058;2022-10-31T00:07:25;98587.06;;;2.30;67.71
71126;BME280;58785;55.566;38.058;2022-10-31T00:09:51;98586.97;;;2.32;67.98
71126;BME280;58785;55.566;38.058;2022-10-31T00:12:17;98580.28;;;2.27;67.56
71126;BME280;58785;55.566;38.058;2022-10-31T00:14:42;98577.13;;;2.34;67.64
71126;BME280;58785;55.566;38.058;2022-10-31T00:17:08;98567.00;;;2.29;67.55
71126;BME280;58785;55.566;38.058;2022-10-31T00:19:33;98586.56;;;2.36;67.88
71126;BME280;58785;55.566;38.058;2022-10-31T00:21:59;98575.19;;;2.36;68.07
71126;BME280;58785;55.566;38.058;2022-10-31T00:24:24;98575.88;;;2.38;67.84
71126;BME280;58785;55.566;38.058;2022-10-31T00:26:50;98569.94;;;2.36;67.42
71126;BME280;58785;55.566;38.058;2022-10-31T00:29:15;98571.28;;;2.30;67.44
71126;BME280;58785;55.566;38.058;2022-10-31T00:31:41;98570.34;;;2.31;67.07
71126;BME280;58785;55.566;38.058;2022-10-31T00:34:06;98560.50;;;2.23;67.30
71126;BME280;58785;55.566;38.058;2022-10-31T00:36:32;98555.78;;;2.27;67.29
71126;BME280;58785;55.566;38.058;2022-10-31T00:38:57;98548.19;;;2.24;67.03
71126;BME280;58785;55.566;38.058;2022-10-31T00:41:23;98558.88;;;2.32;67.49
71126;BME280;58785;55.566;38.058;2022-10-31T00:43:49;98547.91;;;2.27;67.59
71126;BME280;58785;55.566;38.058;2022-10-31T00:46:14;98556.47;;;2.29;67.27
71126;BME280;58785;55.566;38.058;2022-10-31T00:48:40;98547.75;;;2.28;67.53
71126;BME280;58785;55.566;38.058;2022-10-31T00:51:07;98543.34;;;2.29;67.40
71126;BME280;58785;55.566;38.058;2022-10-31T00:53:32;98555.41;;;2.32;67.01
71126;BME280;58785;55.566;38.058;2022-10-31T00:55:58;98553.47;;;2.34;67.21
71126;BME280;58785;55.566;38.058;2022-10-31T00:58:23;98554.84;;;2.38;67.65
71126;BME280;58785;55.566;38.058;2022-10-31T01:00:49;98555.81;;;2.37;67.20
71126;BME280;58785;55.566;38.058;2022-10-31T01:03:29;98544.06;;;2.31;67.25
71126;BME280;58785;55.566;38.058;2022-10-31T01:08:24;98548.47;;;2.40;67.51
71126;BME280;58785;55.566;38.058;2022-10-31T01:11:01;98562.59;;;2.39;66.87
71126;BME280;58785;55.566;38.058;2022-10-31T01:13:27;98555.50;;;2.30;67.28
71126;BME280;58785;55.566;38.058;2022-10-31T01:15:57;98556.63;;;2.27;66.96
71126;BME280;58785;55.566;38.058;2022-10-31T01:18:23;98568.56;;;2.32;66.95
71126;BME280;58785;55.566;38.058;2022-10-31T01:21:04;98556.38;;;2.30;66.73
71126;BME280;58785;55.566;38.058;2022-10-31T01:23:30;98556.63;;;2.27;66.38
71126;BME280;58785;55.566;38.058;2022-10-31T01:26:05;98549.84;;;2.25;66.54
71126;BME280;58785;55.566;38.058;2022-10-31T01:28:31;98567.00;;;2.29;66.54
71126;BME280;58785;55.566;38.058;2022-10-31T01:31:03;98559.38;;;2.26;67.08
71126;BME280;58785;55.566;38.058;2022-10-31T01:33:29;98550.13;;;2.22;66.81
71126;BME280;58785;55.566;38.058;2022-10-31T01:35:55;98550.66;;;2.25;66.63
71126;BME280;58785;55.566;38.058;2022-10-31T01:38:20;98553.94;;;2.18;67.05
71126;BME280;58785;55.566;38.058;2022-10-31T01:40:46;98554.53;;;2.21;67.11
71126;BME280;58785;55.566;38.058;2022-10-31T01:43:14;98538.59;;;2.13;66.44
71126;BME280;58785;55.566;38.058;2022-10-31T01:45:46;98562.13;;;2.15;66.92
71126;BME280;58785;55.566;38.058;2022-10-31T01:48:15;98557.97;;;2.12;67.00
71126;BME280;58785;55.566;38.058;2022-10-31T01:50:45;98554.50;;;2.12;67.51
71126;BME280;58785;55.566;38.058;2022-10-31T01:53:12;98567.25;;;2.16;66.78
71126;BME280;58785;55.566;38.058;2022-10-31T01:55:40;98565.25;;;2.09;67.11
71126;BME280;58785;55.566;38.058;2022-10-31T01:58:14;98567.88;;;2.09;66.99
71126;BME280;58785;55.566;38.058;2022-10-31T02:00:42;98557.91;;;2.03;67.02
71126;BME280;58785;55.566;38.058;2022-10-31T02:03:09;98563.03;;;2.04;67.45
71126;BME280;58785;55.566;38.058;2022-10-31T02:05:35;98557.75;;;1.94;67.74
71126;BME280;58785;55.566;38.058;2022-10-31T02:08:08;98571.03;;;1.93;68.21
71126;BME280;58785;55.566;38.058;2022-10-31T02:10:36;98564.59;;;1.86;67.76
71126;BME280;58785;55.566;38.058;2022-10-31T02:13:04;98570.56;;;1.88;68.34
71126;BME280;58785;55.566;38.058;2022-10-31T02:15:31;98564.88;;;1.83;68.57
71126;BME280;58785;55.566;38.058;2022-10-31T02:17:58;98564.88;;;1.83;68.87
71126;BME280;58785;55.566;38.058;2022-10-31T02:20:25;98561.94;;;1.76;68.67
71126;BME280;58785;55.566;38.058;2022-10-31T02:23:19;98587.16;;;1.88;69.00
71126;BME280;58785;55.566;38.058;2022-10-31T02:34:22;98571.00;;;1.62;70.08
71126;BME280;58785;55.566;38.058;2022-10-31T02:36:58;98575.41;;;1.62;70.43
71126;BME280;58785;55.566;38.058;2022-10-31T02:39:44;98577.78;;;1.65;71.19
71126;BME280;58785;55.566;38.058;2022-10-31T02:42:33;98581.03;;;1.57;70.99
71126;BME280;58785;55.566;38.058;2022-10-31T02:47:36;98582.06;;;1.66;71.13
71126;BME280;58785;55.566;38.058;2022-10-31T02:50:52;98568.66;;;1.69;71.37
71126;BME280;58785;55.566;38.058;2022-10-31T02:52:52;98580.47;;;1.75;71.15
71126;BME280;58785;55.566;38.058;2022-10-31T02:57:52;98570.91;;;1.73;72.01
71126;BME280;58785;55.566;38.058;2022-10-31T03:00:20;98566.75;;;1.71;71.88
71126;BME280;58785;55.566;38.058;2022-10-31T03:08:30;98580.88;;;1.80;72.68
71126;BME280;58785;55.566;38.058;2022-10-31T03:11:01;98569.94;;;1.75;73.04
71126;BME280;58785;55.566;38.058;2022-10-31T03:13:48;98571.19;;;1.80;73.02
71126;BME280;58785;55.566;38.058;2022-10-31T03:16:31;98579.53;;;1.85;73.17
71126;BME280;58785;55.566;38.058;2022-10-31T03:19:10;98567.88;;;1.78;73.37
71126;BME280;58785;55.566;38.058;2022-10-31T03:21:42;98587.44;;;1.85;73.38
71126;BME280;58785;55.566;38.058;2022-10-31T03:24:11;98582.31;;;1.84;73.93
71126;BME280;58785;55.566;38.058;2022-10-31T03:26:41;98577.13;;;1.72;73.83
71126;BME280;58785;55.566;38.058;2022-10-31T03:29:11;98581.22;;;1.65;74.40
71126;BME280;58785;55.566;38.058;2022-10-31T03:31:54;98568.03;;;1.56;74.27
71126;BME280;58785;55.566;38.058;2022-10-31T03:34:21;98571.63;;;1.55;74.74
71126;BME280;58785;55.566;38.058;2022-10-31T03:36:50;98583.03;;;1.65;74.23
71126;BME280;58785;55.566;38.058;2022-10-31T03:39:18;98578.88;;;1.62;74.85
71126;BME280;58785;55.566;38.058;2022-10-31T03:41:50;98582.91;;;1.66;74.84
71126;BME280;58785;55.566;38.058;2022-10-31T03:44:20;98580.53;;;1.63;74.68
71126;BME280;58785;55.566;38.058;2022-10-31T03:46:46;98577.56;;;1.57;74.71
71126;BME280;58785;55.566;38.058;2022-10-31T03:49:13;98580.34;;;1.55;75.18
71126;BME280;58785;55.566;38.058;2022-10-31T03:57:27;98599.16;;;1.60;75.21
71126;BME280;58785;55.566;38.058;2022-10-31T04:00:14;98586.28;;;1.57;75.24
71126;BME280;58785;55.566;38.058;2022-10-31T04:02:46;98586.75;;;1.62;75.20
71126;BME280;58785;55.566;38.058;2022-10-31T04:05:15;98594.03;;;1.59;75.31
71126;BME280;58785;55.566;38.058;2022-10-31T04:07:46;98571.16;;;1.50;75.25
71126;BME280;58785;55.566;38.058;2022-10-31T04:10:14;98580.06;;;1.58;74.81
71126;BME280;58785;55.566;38.058;2022-10-31T04:12:43;98578.03;;;1.62;75.10
71126;BME280;58785;55.566;38.058;2022-10-31T04:15:11;98592.44;;;1.67;74.34
71126;BME280;58785;55.566;38.058;2022-10-31T04:17:40;98588.16;;;1.66;75.00
71126;BME280;58785;55.566;38.058;2022-10-31T04:20:08;98603.66;;;1.69;74.44
71126;BME280;58785;55.566;38.058;2022-10-31T04:22:34;98611.66;;;1.68;74.46
71126;BME280;58785;55.566;38.058;2022-10-31T04:24:59;98601.28;;;1.66;74.76
71126;BME280;58785;55.566;38.058;2022-10-31T04:27:25;98601.78;;;1.60;74.68
71126;BME280;58785;55.566;38.058;2022-10-31T04:29:50;98610.41;;;1.62;74.52
71126;BME280;58785;55.566;38.058;2022-10-31T04:32:16;98607.91;;;1.61;74.39
71126;BME280;58785;55.566;38.058;2022-10-31T04:34:42;98612.63;;;1.67;74.85
71126;BME280;58785;55.566;38.058;2022-10-31T04:37:07;98617.31;;;1.63;74.57
71126;BME280;58785;55.566;38.058;2022-10-31T04:39:33;98599.81;;;1.53;74.53
71126;BME280;58785;55.566;38.058;2022-10-31T04:41:58;98614.56;;;1.65;74.73
71126;BME280;58785;55.566;38.058;2022-10-31T04:44:23;98615.88;;;1.59;74.75
71126;BME280;58785;55.566;38.058;2022-10-31T04:46:49;98625.06;;;1.65;74.35
71126;BME280;58785;55.566;38.058;2022-10-31T04:49:14;98631.41;;;1.62;74.87
71126;BME280;58785;55.566;38.058;2022-10-31T04:51:40;98627.81;;;1.63;74.55
71126;BME280;58785;55.566;38.058;2022-10-31T04:54:06;98636.97;;;1.69;74.98
71126;BME280;58785;55.566;38.058;2022-10-31T04:56:31;98619.41;;;1.69;75.00
71126;BME280;58785;55.566;38.058;2022-10-31T04:58:57;98630.50;;;1.73;74.88
71126;BME280;58785;55.566;38.058;2022-10-31T05:01:23;98623.13;;;1.67;74.60
71126;BME280;58785;55.566;38.058;2022-10-31T05:03:48;98638.91;;;1.67;74.91
71126;BME280;58785;55.566;38.058;2022-10-31T05:06:14;98626.03;;;1.64;74.64
71126;BME280;58785;55.566;38.058;2022-10-31T05:08:41;98639.50;;;1.70;75.03
71126;BME280;58785;55.566;38.058;2022-10-31T05:11:07;98633.50;;;1.68;74.57
71126;BME280;58785;55.566;38.058;2022-10-31T05:13:32;98646.16;;;1.75;74.88
71126;BME280;58785;55.566;38.058;2022-10-31T05:15:58;98646.97;;;1.75;74.69
71126;BME280;58785;55.566;38.058;2022-10-31T05:18:23;98643.38;;;1.76;74.83
71126;BME280;58785;55.566;38.058;2022-10-31T05:20:49;98640.19;;;1.72;74.66
71126;BME280;58785;55.566;38.058;2022-10-31T05:23:14;98644.16;;;1.67;74.67
71126;BME280;58785;55.566;38.058;2022-10-31T05:25:40;98667.66;;;1.68;74.80
71126;BME280;58785;55.566;38.058;2022-10-31T05:28:06;98658.66;;;1.61;74.80
71126;BME280;58785;55.566;38.058;2022-10-31T05:30:33;98659.56;;;1.60;75.06
71126;BME280;58785;55.566;38.058;2022-10-31T05:32:59;98667.59;;;1.59;75.19
71126;BME280;58785;55.566;38.058;2022-10-31T05:35:32;98678.91;;;1.70;74.94
71126;BME280;58785;55.566;38.058;2022-10-31T05:37:58;98689.84;;;1.76;74.88
71126;BME280;58785;55.566;38.058;2022-10-31T05:40:25;98674.91;;;1.76;74.94
71126;BME280;58785;55.566;38.058;2022-10-31T05:42:52;98676.44;;;1.79;74.67
71126;BME280;58785;55.566;38.058;2022-10-31T05:45:19;98685.50;;;1.86;74.48
71126;BME280;58785;55.566;38.058;2022-10-31T05:47:57;98689.44;;;1.91;74.62
71126;BME280;58785;55.566;38.058;2022-10-31T05:50:24;98700.09;;;1.99;74.35
71126;BME280;58785;55.566;38.058;2022-10-31T05:53:03;98697.94;;;2.05;74.12
71126;BME280;58785;55.566;38.058;2022-10-31T05:55:29;98705.34;;;2.20;74.09
71126;BME280;58785;55.566;38.058;2022-10-31T05:57:55;98698.28;;;2.11;74.02
71126;BME280;58785;55.566;38.058;2022-10-31T06:00:22;98720.31;;;2.20;73.81
71126;BME280;58785;55.566;38.058;2022-10-31T06:02:48;98726.16;;;2.23;73.75
71126;BME280;58785;55.566;38.058;2022-10-31T06:05:15;98722.09;;;2.19;73.95
71126;BME280;58785;55.566;38.058;2022-10-31T06:07:41;98718.78;;;2.17;73.88
71126;BME280;58785;55.566;38.058;2022-10-31T06:10:08;98743.94;;;2.31;73.75
71126;BME280;58785;55.566;38.058;2022-10-31T06:12:35;98749.75;;;2.35;73.78
71126;BME280;58785;55.566;38.058;2022-10-31T06:15:06;98761.66;;;2.39;73.64
71126;BME280;58785;55.566;38.058;2022-10-31T06:17:33;98762.97;;;2.44;73.40
71126;BME280;58785;55.566;38.058;2022-10-31T06:19:59;98772.03;;;2.51;73.42
71126;BME280;58785;55.566;38.058;2022-10-31T06:22:24;98782.78;;;2.48;73.59
71126;BME280;58785;55.566;38.058;2022-10-31T06:24:49;98771.38;;;2.38;73.43
71126;BME280;58785;55.566;38.058;2022-10-31T06:27:15;98784.97;;;2.43;73.52
71126;BME280;58785;55.566;38.058;2022-10-31T06:29:41;98790.25;;;2.43;73.36
71126;BME280;58785;55.566;38.058;2022-10-31T06:32:09;98793.69;;;2.44;73.34
71126;BME280;58785;55.566;38.058;2022-10-31T06:34:35;98796.06;;;2.47;73.81
71126;BME280;58785;55.566;38.058;2022-10-31T06:37:01;98803.59;;;2.51;73.24
71126;BME280;58785;55.566;38.058;2022-10-31T06:39:26;98803.97;;;2.47;73.74
71126;BME280;58785;55.566;38.058;2022-10-31T06:41:52;98810.38;;;2.54;73.68
71126;BME280;58785;55.566;38.058;2022-10-31T06:44:20;98815.78;;;2.52;73.83
71126;BME280;58785;55.566;38.058;2022-10-31T06:46:46;98812.31;;;2.52;73.90
71126;BME280;58785;55.566;38.058;2022-10-31T06:49:12;98803.97;;;2.47;73.62
71126;BME280;58785;55.566;38.058;2022-10-31T06:51:38;98827.44;;;2.59;73.63
71126;BME280;58785;55.566;38.058;2022-10-31T06:54:03;98826.50;;;2.61;73.38
71126;BME280;58785;55.566;38.058;2022-10-31T06:56:29;98861.66;;;2.59;73.72
71126;BME280;58785;55.566;38.058;2022-10-31T06:58:55;98854.59;;;2.60;73.60
71126;BME280;58785;55.566;38.058;2022-10-31T07:01:20;98845.75;;;2.61;74.23
71126;BME280;58785;55.566;38.058;2022-10-31T07:03:46;98859.16;;;2.58;73.79
71126;BME280;58785;55.566;38.058;2022-10-31T07:06:11;98855.56;;;2.59;73.83
71126;BME280;58785;55.566;38.058;2022-10-31T07:08:37;98879.00;;;2.62;74.37
71126;BME280;58785;55.566;38.058;2022-10-31T07:11:03;98863.22;;;2.62;74.22
71126;BME280;58785;55.566;38.058;2022-10-31T07:13:28;98866.53;;;2.64;74.17
71126;BME280;58785;55.566;38.058;2022-10-31T07:15:58;98879.16;;;2.70;74.18
71126;BME280;58785;55.566;38.058;2022-10-31T07:18:24;98882.66;;;2.71;73.72
71126;BME280;58785;55.566;38.058;2022-10-31T07:20:51;98890.88;;;2.77;73.79
71126;BME280;58785;55.566;38.058;2022-10-31T07:23:17;98906.78;;;2.76;73.63
71126;BME280;58785;55.566;38.058;2022-10-31T07:25:42;98909.47;;;2.65;73.97
71126;BME280;58785;55.566;38.058;2022-10-31T07:28:09;98914.41;;;2.58;74.01
71126;BME280;58785;55.566;38.058;2022-10-31T07:30:34;98921.22;;;2.61;74.64
71126;BME280;58785;55.566;38.058;2022-10-31T07:33:00;98930.41;;;2.66;74.22
71126;BME280;58785;55.566;38.058;2022-10-31T07:35:27;98948.81;;;2.66;74.40
71126;BME280;58785;55.566;38.058;2022-10-31T07:37:54;98959.69;;;2.73;74.41
71126;BME280;58785;55.566;38.058;2022-10-31T07:40:21;98937.72;;;2.63;74.58
71126;BME280;58785;55.566;38.058;2022-10-31T07:42:49;98959.47;;;2.65;74.50
71126;BME280;58785;55.566;38.058;2022-10-31T07:45:17;98965.66;;;2.75;74.69
71126;BME280;58785;55.566;38.058;2022-10-31T07:47:44;98972.31;;;2.79;74.37
71126;BME280;58785;55.566;38.058;2022-10-31T07:50:12;98986.22;;;2.81;74.64
71126;BME280;58785;55.566;38.058;2022-10-31T07:52:38;98983.91;;;2.87;74.26
71126;BME280;58785;55.566;38.058;2022-10-31T07:55:05;98996.03;;;3.00;74.27
71126;BME280;58785;55.566;38.058;2022-10-31T07:57:31;99004.69;;;2.91;74.15
71126;BME280;58785;55.566;38.058;2022-10-31T07:59:57;99015.97;;;2.93;74.71
71126;BME280;58785;55.566;38.058;2022-10-31T08:02:23;99020.50;;;2.91;74.63
71126;BME280;58785;55.566;38.058;2022-10-31T08:04:49;99016.25;;;2.78;75.37
71126;BME280;58785;55.566;38.058;2022-10-31T08:07:15;99041.13;;;2.85;75.17
71126;BME280;58785;55.566;38.058;2022-10-31T08:09:41;99034.19;;;2.84;75.37
71126;BME280;58785;55.566;38.058;2022-10-31T08:12:06;99043.88;;;2.84;75.04
71126;BME280;58785;55.566;38.058;2022-10-31T08:14:32;99027.59;;;2.79;74.87
71126;BME280;58785;55.566;38.058;2022-10-31T08:16:57;99026.81;;;2.67;74.82
71126;BME280;58785;55.566;38.058;2022-10-31T08:19:23;99034.44;;;2.70;74.88
71126;BME280;58785;55.566;38.058;2022-10-31T08:21:52;99049.00;;;2.85;74.41
71126;BME280;58785;55.566;38.058;2022-10-31T08:24:20;99050.63;;;2.98;74.18
71126;BME280;58785;55.566;38.058;2022-10-31T08:26:46;99046.75;;;3.13;73.65
71126;BME280;58785;55.566;38.058;2022-10-31T08:29:12;99059.47;;;3.29;73.47
71126;BME280;58785;55.566;38.058;2022-10-31T08:31:38;99056.78;;;3.40;73.35
71126;BME280;58785;55.566;38.058;2022-10-31T08:34:03;99048.56;;;3.33;73.04
71126;BME280;58785;55.566;38.058;2022-10-31T08:36:29;99082.81;;;3.33;72.19
71126;BME280;58785;55.566;38.058;2022-10-31T08:38:55;99081.28;;;3.31;71.96
71126;BME280;58785;55.566;38.058;2022-10-31T08:41:21;99082.97;;;3.21;71.35
71126;BME280;58785;55.566;38.058;2022-10-31T08:43:47;99086.91;;;3.26;70.93
71126;BME280;58785;55.566;38.058;2022-10-31T08:46:13;99076.94;;;3.30;71.35
71126;BME280;58785;55.566;38.058;2022-10-31T08:48:38;99078.66;;;3.31;70.73
71126;BME280;58785;55.566;38.058;2022-10-31T08:51:04;99070.75;;;3.31;71.05
71126;BME280;58785;55.566;38.058;2022-10-31T08:53:30;99095.09;;;3.44;71.17
71126;BME280;58785;55.566;38.058;2022-10-31T08:55:56;99109.94;;;3.45;70.12
71126;BME280;58785;55.566;38.058;2022-10-31T08:58:23;99116.75;;;3.47;70.35
71126;BME280;58785;55.566;38.058;2022-10-31T09:00:51;99123.19;;;3.55;69.38
71126;BME280;58785;55.566;38.058;2022-10-31T09:03:25;99109.56;;;3.50;69.32
71126;BME280;58785;55.566;38.058;2022-10-31T09:05:55;99102.63;;;3.49;68.48
71126;BME280;58785;55.566;38.058;2022-10-31T09:08:21;99105.03;;;3.52;68.38
71126;BME280;58785;55.566;38.058;2022-10-31T09:10:47;99138.53;;;3.82;68.34
71126;BME280;58785;55.566;38.058;2022-10-31T09:13:15;99125.50;;;3.90;67.65
71126;BME280;58785;55.566;38.058;2022-10-31T09:15:42;99126.09;;;3.93;67.16
71126;BME280;58785;55.566;38.058;2022-10-31T09:18:12;99135.81;;;3.93;67.88
71126;BME280;58785;55.566;38.058;2022-10-31T09:20:39;99124.56;;;3.91;68.03
71126;BME280;58785;55.566;38.058;2022-10-31T09:23:12;99135.13;;;3.91;69.31
71126;BME280;58785;55.566;38.058;2022-10-31T09:25:38;99128.59;;;3.95;69.20
71126;BME280;58785;55.566;38.058;2022-10-31T09:28:05;99145.53;;;4.13;69.49
71126;BME280;58785;55.566;38.058;2022-10-31T09:30:33;99135.34;;;4.09;69.59
71126;BME280;58785;55.566;38.058;2022-10-31T09:33:01;99142.88;;;4.13;69.85
71126;BME280;58785;55.566;38.058;2022-10-31T09:35:27;99148.81;;;4.06;70.12
71126;BME280;58785;55.566;38.058;2022-10-31T09:38:01;99155.50;;;3.89;70.65
71126;BME280;58785;55.566;38.058;2022-10-31T09:40:34;99173.16;;;3.77;71.42
71126;BME280;58785;55.566;38.058;2022-10-31T09:43:12;99180.75;;;3.70;71.71
71126;BME280;58785;55.566;38.058;2022-10-31T09:51:37;99184.41;;;3.79;70.71
71126;BME280;58785;55.566;38.058;2022-10-31T09:54:34;99176.44;;;3.69;69.73
71126;BME280;58785;55.566;38.058;2022-10-31T09:57:02;99191.81;;;3.64;69.66
71126;BME280;58785;55.566;38.058;2022-10-31T09:59:39;99194.66;;;3.72;69.03
71126;BME280;58785;55.566;38.058;2022-10-31T10:02:22;99203.56;;;3.60;67.77
71126;BME280;58785;55.566;38.058;2022-10-31T10:04:56;99210.97;;;3.66;68.27
71126;BME280;58785;55.566;38.058;2022-10-31T10:07:49;99220.94;;;3.63;68.60
71126;BME280;58785;55.566;38.058;2022-10-31T10:10:41;99224.41;;;3.63;69.18
71126;BME280;58785;55.566;38.058;2022-10-31T10:30:18;99282.41;;;3.63;69.05
71126;BME280;58785;55.566;38.058;2022-10-31T10:32:51;99271.06;;;3.52;68.51
71126;BME280;58785;55.566;38.058;2022-10-31T10:37:46;99280.41;;;3.44;68.38
71126;BME280;58785;55.566;38.058;2022-10-31T10:40:18;99278.47;;;3.46;69.22
71126;BME280;58785;55.566;38.058;2022-10-31T10:42:54;99279.91;;;3.39;69.30
71126;BME280;58785;55.566;38.058;2022-10-31T10:45:40;99302.91;;;3.49;69.39
71126;BME280;58785;55.566;38.058;2022-10-31T10:48:54;99283.38;;;3.62;69.35
71126;BME280;58785;55.566;38.058;2022-10-31T10:51:30;99288.59;;;3.73;69.11
71126;BME280;58785;55.566;38.058;2022-10-31T10:54:26;99278.59;;;3.88;68.37
71126;BME280;58785;55.566;38.058;2022-10-31T10:59:37;99284.03;;;4.08;68.45
71126;BME280;58785;55.566;38.058;2022-10-31T11:02:03;99284.03;;;4.08;68.17
71126;BME280;58785;55.566;38.058;2022-10-31T11:04:36;99278.44;;;4.01;68.30
71126;BME280;58785;55.566;38.058;2022-10-31T11:07:09;99275.19;;;3.97;68.17
71126;BME280;58785;55.566;38.058;2022-10-31T11:09:36;99271.38;;;4.01;68.29
71126;BME280;58785;55.566;38.058;2022-10-31T11:12:10;99281.25;;;4.09;68.23
71126;BME280;58785;55.566;38.058;2022-10-31T11:15:02;99278.84;;;4.17;68.91
71126;BME280;58785;55.566;38.058;2022-10-31T11:17:33;99283.00;;;4.20;68.29
71126;BME280;58785;55.566;38.058;2022-10-31T11:22:37;99281.47;;;4.17;68.67
71126;BME280;58785;55.566;38.058;2022-10-31T11:25:26;99288.41;;;4.18;68.49
71126;BME280;58785;55.566;38.058;2022-10-31T11:28:04;99290.22;;;4.18;69.04
71126;BME280;58785;55.566;38.058;2022-10-31T11:30:35;99294.31;;;4.11;68.54
71126;BME280;58785;55.566;38.058;2022-10-31T11:33:16;99291.88;;;3.98;68.77
71126;BME280;58785;55.566;38.058;2022-10-31T11:35:43;99294.00;;;4.04;68.96
71126;BME280;58785;55.566;38.058;2022-10-31T11:38:15;99285.13;;;4.05;68.84
71126;BME280;58785;55.566;38.058;2022-10-31T11:40:55;99301.41;;;4.10;69.07
71126;BME280;58785;55.566;38.058;2022-10-31T11:43:22;99292.66;;;4.10;68.91
71126;BME280;58785;55.566;38.058;2022-10-31T11:45:48;99287.84;;;4.15;68.71
71126;BME280;58785;55.566;38.058;2022-10-31T11:48:22;99285.34;;;4.13;68.83
71126;BME280;58785;55.566;38.058;2022-10-31T11:50:52;99283.06;;;4.09;69.01
71126;BME280;58785;55.566;38.058;2022-10-31T11:53:24;99283.66;;;4.12;69.05
71126;BME280;58785;55.566;38.058;2022-10-31T11:56:12;99283.19;;;4.07;68.93
71126;BME280;58785;55.566;38.058;2022-10-31T11:58:38;99296.03;;;4.12;68.83
71126;BME280;58785;55.566;38.058;2022-10-31T12:01:04;99306.19;;;4.16;69.31
71126;BME280;58785;55.566;38.058;2022-10-31T12:06:21;99322.16;;;4.15;69.08
71126;BME280;58785;55.566;38.058;2022-10-31T12:08:48;99324.66;;;4.16;69.06
71126;BME280;58785;55.566;38.058;2022-10-31T12:16:40;99335.06;;;4.18;69.32
71126;BME280;58785;55.566;38.058;2022-10-31T12:19:25;99323.25;;;4.12;69.08
71126;BME280;58785;55.566;38.058;2022-10-31T12:35:54;99322.69;;;3.97;69.91
71126;BME280;58785;55.566;38.058;2022-10-31T12:44:03;99341.03;;;3.88;70.47
71126;BME280;58785;55.566;38.058;2022-10-31T12:55:08;99327.91;;;3.77;71.64
71126;BME280;58785;55.566;38.058;2022-10-31T12:57:40;99326.34;;;3.74;72.16
71126;BME280;58785;55.566;38.058;2022-10-31T13:00:19;99316.06;;;3.60;72.77
71126;BME280;58785;55.566;38.058;2022-10-31T13:07:46;99321.13;;;3.52;73.58
71126;BME280;58785;55.566;38.058;2022-10-31T13:10:26;99334.50;;;3.60;74.20
71126;BME280;58785;55.566;38.058;2022-10-31T13:13:00;99323.63;;;3.53;74.02
71126;BME280;58785;55.566;38.058;2022-10-31T13:15:32;99338.75;;;3.51;74.04
71126;BME280;58785;55.566;38.058;2022-10-31T13:18:04;99354.06;;;3.57;74.67
71126;BME280;58785;55.566;38.058;2022-10-31T13:20:37;99349.28;;;3.51;74.38
71126;BME280;58785;55.566;38.058;2022-10-31T13:23:10;99361.59;;;3.51;74.72
71126;BME280;58785;55.566;38.058;2022-10-31T13:25:46;99367.47;;;3.54;74.42
71126;BME280;58785;55.566;38.058;2022-10-31T13:30:47;99375.63;;;3.51;75.31
71126;BME280;58785;55.566;38.058;2022-10-31T13:33:39;99363.41;;;3.50;75.28
71126;BME280;58785;55.566;38.058;2022-10-31T13:38:51;99387.00;;;3.63;74.59
71126;BME280;58785;55.566;38.058;2022-10-31T13:46:41;99406.63;;;3.70;74.39
71126;BME280;58785;55.566;38.058;2022-10-31T13:54:37;99407.47;;;3.82;74.36
71126;BME280;58785;55.566;38.058;2022-10-31T13:57:12;99397.28;;;3.77;73.94
71126;BME280;58785;55.566;38.058;2022-10-31T13:59:48;99406.75;;;3.80;74.03
71126;BME280;58785;55.566;38.058;2022-10-31T14:02:16;99414.66;;;3.80;74.21
71126;BME280;58785;55.566;38.058;2022-10-31T14:04:51;99414.31;;;3.84;74.18
71126;BME280;58785;55.566;38.058;2022-10-31T14:07:22;99418.38;;;3.88;73.81
71126;BME280;58785;55.566;38.058;2022-10-31T14:12:37;99424.00;;;3.95;74.10
71126;BME280;58785;55.566;38.058;2022-10-31T14:15:23;99429.84;;;3.98;74.06
71126;BME280;58785;55.566;38.058;2022-10-31T14:17:50;99432.50;;;3.98;73.76
71126;BME280;58785;55.566;38.058;2022-10-31T14:22:42;99435.38;;;3.95;73.90
71126;BME280;58785;55.566;38.058;2022-10-31T14:25:33;99449.66;;;4.04;74.04
71126;BME280;58785;55.566;38.058;2022-10-31T14:28:02;99466.44;;;4.03;73.81
71126;BME280;58785;55.566;38.058;2022-10-31T14:30:29;99444.84;;;3.98;73.46
71126;BME280;58785;55.566;38.058;2022-10-31T14:33:00;99449.53;;;3.94;73.48
71126;BME280;58785;55.566;38.058;2022-10-31T14:36:15;99450.00;;;3.99;73.52
71126;BME280;58785;55.566;38.058;2022-10-31T14:41:48;99467.41;;;3.91;73.97
71126;BME280;58785;55.566;38.058;2022-10-31T14:47:14;99453.59;;;3.87;73.96
71126;BME280;58785;55.566;38.058;2022-10-31T14:49:59;99455.53;;;3.85;73.92
71126;BME280;58785;55.566;38.058;2022-10-31T14:52:30;99471.94;;;3.89;74.31
71126;BME280;58785;55.566;38.058;2022-10-31T14:54:57;99452.78;;;3.87;74.36
71126;BME280;58785;55.566;38.058;2022-10-31T14:57:29;99468.47;;;3.88;73.78
71126;BME280;58785;55.566;38.058;2022-10-31T15:00:01;99475.31;;;3.91;73.72
71126;BME280;58785;55.566;38.058;2022-10-31T15:05:07;99475.31;;;3.80;74.12
71126;BME280;58785;55.566;38.058;2022-10-31T15:07:33;99479.72;;;3.90;73.95
71126;BME280;58785;55.566;38.058;2022-10-31T15:10:04;99477.84;;;3.81;73.89
71126;BME280;58785;55.566;38.058;2022-10-31T15:12:35;99485.13;;;3.89;73.77
71126;BME280;58785;55.566;38.058;2022-10-31T15:15:24;99483.00;;;3.83;73.32
71126;BME280;58785;55.566;38.058;2022-10-31T15:17:55;99505.88;;;3.82;73.12
71126;BME280;58785;55.566;38.058;2022-10-31T15:20:25;99491.38;;;3.77;73.38
71126;BME280;58785;55.566;38.058;2022-10-31T15:22:52;99503.47;;;3.79;73.66